Terminal Aerodrome Forecast
Issued by NWS Knoxville/Tri Cities, TN

Home | Current Version | Previous Version | Text Only | Print | Product List | Glossary On
Versions: 1 2 3 4 5 6 7 8 9 10 11 12 13 14 15 16 17 18 19 20 21 22 23 24 25 26 27 28 29 30
000
FTUS44 KMRX 192129 AAB
TAFTYS
TAF AMD
KTYS 192129Z 1921/2018 25006KT P6SM VCTS SCT050CB BKN100
      TEMPO 1921/1923 3SM TSRA BR BKN040CB
     FM200100 VRB03KT P6SM SCT250
     FM201000 00000KT 4SM BR SKC
     FM201400 00000KT P6SM FEW250=

USA.gov is the U.S. government's official web portal to all federal, state and local government web resources and services.